Terminal Aerodrome Forecast
Issued by NWS Wilmington, OH

Current Version | Previous Version | Text Only | Print | Product List | Glossary Off
Versions: 1 2 3 4 5 6 7 8 9 10 11 12 13 14 15 16 17 18 19 20 21 22 23

724
FTUS41 KILN 220404 AAA
TAFDAY
TAF AMD
KDAY 220404Z 2204/2224 18005KT P6SM VCSH OVC080
      TEMPO 2204/2206 5SM -SHRA BR
     FM220600 VRB03KT 5SM BR OVC035
     FM220800 VRB03KT 4SM BR OVC015
     FM221000 VRB03KT 2SM BR OVC008
     FM221500 20006KT 5SM BR BKN008
     FM221700 20008KT P6SM BKN025=

USA.gov is the U.S. government's official web portal to all federal, state and local government web resources and services.